sensor_id;sensor_type;location;lat;lon;timestamp;P1;durP1;ratioP1;P2;durP2;ratioP2
50102;SDS011;35993;52.604;10.078;2023-04-08T00:01:18;7.85;;;3.90;;
50102;SDS011;35993;52.604;10.078;2023-04-08T00:03:44;7.60;;;3.78;;
50102;SDS011;35993;52.604;10.078;2023-04-08T00:06:10;8.65;;;4.32;;
50102;SDS011;35993;52.604;10.078;2023-04-08T00:08:35;7.32;;;4.07;;
50102;SDS011;35993;52.604;10.078;2023-04-08T00:11:01;6.93;;;4.05;;
50102;SDS011;35993;52.604;10.078;2023-04-08T00:13:26;7.60;;;4.20;;
50102;SDS011;35993;52.604;10.078;2023-04-08T00:15:52;8.70;;;4.35;;
50102;SDS011;35993;52.604;10.078;2023-04-08T00:18:17;10.32;;;4.63;;
50102;SDS011;35993;52.604;10.078;2023-04-08T00:20:43;8.23;;;4.38;;
50102;SDS011;35993;52.604;10.078;2023-04-08T00:23:08;8.88;;;4.63;;
50102;SDS011;35993;52.604;10.078;2023-04-08T00:25:34;8.25;;;4.00;;
50102;SDS011;35993;52.604;10.078;2023-04-08T00:28:00;8.75;;;4.50;;
50102;SDS011;35993;52.604;10.078;2023-04-08T00:30:26;7.18;;;4.03;;
50102;SDS011;35993;52.604;10.078;2023-04-08T00:32:52;8.23;;;4.72;;
50102;SDS011;35993;52.604;10.078;2023-04-08T00:35:18;7.35;;;4.22;;
50102;SDS011;35993;52.604;10.078;2023-04-08T00:37:43;8.18;;;4.60;;
50102;SDS011;35993;52.604;10.078;2023-04-08T00:40:10;6.95;;;4.45;;
50102;SDS011;35993;52.604;10.078;2023-04-08T00:42:36;8.25;;;4.65;;
50102;SDS011;35993;52.604;10.078;2023-04-08T00:45:01;8.38;;;4.53;;
50102;SDS011;35993;52.604;10.078;2023-04-08T00:47:28;9.18;;;4.63;;
50102;SDS011;35993;52.604;10.078;2023-04-08T00:49:53;8.75;;;4.68;;
50102;SDS011;35993;52.604;10.078;2023-04-08T00:52:19;9.25;;;5.35;;
50102;SDS011;35993;52.604;10.078;2023-04-08T00:54:45;10.70;;;5.50;;
50102;SDS011;35993;52.604;10.078;2023-04-08T00:57:10;9.27;;;5.15;;
50102;SDS011;35993;52.604;10.078;2023-04-08T00:59:36;9.23;;;5.47;;
50102;SDS011;35993;52.604;10.078;2023-04-08T01:02:06;8.57;;;4.85;;
50102;SDS011;35993;52.604;10.078;2023-04-08T01:07:26;8.55;;;5.40;;
50102;SDS011;35993;52.604;10.078;2023-04-08T01:09:56;9.98;;;5.15;;
50102;SDS011;35993;52.604;10.078;2023-04-08T01:12:27;9.70;;;5.45;;
50102;SDS011;35993;52.604;10.078;2023-04-08T01:14:59;10.05;;;5.32;;
50102;SDS011;35993;52.604;10.078;2023-04-08T01:17:28;8.60;;;5.03;;
50102;SDS011;35993;52.604;10.078;2023-04-08T01:19:55;12.48;;;5.78;;
50102;SDS011;35993;52.604;10.078;2023-04-08T01:25:13;10.82;;;5.88;;
50102;SDS011;35993;52.604;10.078;2023-04-08T01:27:42;12.73;;;6.32;;
50102;SDS011;35993;52.604;10.078;2023-04-08T01:30:08;11.02;;;6.22;;
50102;SDS011;35993;52.604;10.078;2023-04-08T01:32:34;11.95;;;6.85;;
50102;SDS011;35993;52.604;10.078;2023-04-08T01:35:01;12.15;;;6.65;;
50102;SDS011;35993;52.604;10.078;2023-04-08T01:37:27;12.80;;;6.47;;
50102;SDS011;35993;52.604;10.078;2023-04-08T01:39:54;11.57;;;6.18;;
50102;SDS011;35993;52.604;10.078;2023-04-08T01:42:22;14.38;;;6.95;;
50102;SDS011;35993;52.604;10.078;2023-04-08T01:44:51;12.75;;;7.00;;
50102;SDS011;35993;52.604;10.078;2023-04-08T01:47:20;13.75;;;7.20;;
50102;SDS011;35993;52.604;10.078;2023-04-08T01:49:46;13.23;;;7.18;;
50102;SDS011;35993;52.604;10.078;2023-04-08T01:52:13;10.63;;;6.55;;
50102;SDS011;35993;52.604;10.078;2023-04-08T01:54:43;12.30;;;6.60;;
50102;SDS011;35993;52.604;10.078;2023-04-08T01:57:09;11.10;;;6.15;;
50102;SDS011;35993;52.604;10.078;2023-04-08T01:59:38;13.50;;;7.03;;
50102;SDS011;35993;52.604;10.078;2023-04-08T02:02:05;11.90;;;7.00;;
50102;SDS011;35993;52.604;10.078;2023-04-08T02:04:34;11.18;;;6.90;;
50102;SDS011;35993;52.604;10.078;2023-04-08T02:07:00;12.30;;;6.22;;
50102;SDS011;35993;52.604;10.078;2023-04-08T02:09:27;14.25;;;7.55;;
50102;SDS011;35993;52.604;10.078;2023-04-08T02:11:53;13.68;;;6.78;;
50102;SDS011;35993;52.604;10.078;2023-04-08T02:14:21;12.10;;;7.10;;
50102;SDS011;35993;52.604;10.078;2023-04-08T02:16:53;12.75;;;6.93;;
50102;SDS011;35993;52.604;10.078;2023-04-08T02:19:30;12.98;;;7.10;;
50102;SDS011;35993;52.604;10.078;2023-04-08T02:22:06;14.52;;;7.50;;
50102;SDS011;35993;52.604;10.078;2023-04-08T02:24:41;14.02;;;7.30;;
50102;SDS011;35993;52.604;10.078;2023-04-08T02:27:08;12.93;;;7.50;;
50102;SDS011;35993;52.604;10.078;2023-04-08T02:29:35;15.00;;;7.35;;
50102;SDS011;35993;52.604;10.078;2023-04-08T02:32:04;14.45;;;7.75;;
50102;SDS011;35993;52.604;10.078;2023-04-08T02:34:30;12.88;;;7.25;;
50102;SDS011;35993;52.604;10.078;2023-04-08T02:36:57;14.38;;;7.43;;
50102;SDS011;35993;52.604;10.078;2023-04-08T02:39:32;13.68;;;7.65;;
50102;SDS011;35993;52.604;10.078;2023-04-08T02:41:57;14.60;;;8.10;;
50102;SDS011;35993;52.604;10.078;2023-04-08T02:44:23;14.35;;;7.00;;
50102;SDS011;35993;52.604;10.078;2023-04-08T02:46:49;13.63;;;6.82;;
50102;SDS011;35993;52.604;10.078;2023-04-08T02:49:14;15.10;;;7.40;;
50102;SDS011;35993;52.604;10.078;2023-04-08T02:51:40;13.55;;;7.07;;
50102;SDS011;35993;52.604;10.078;2023-04-08T02:54:06;14.15;;;7.28;;
50102;SDS011;35993;52.604;10.078;2023-04-08T02:56:31;14.73;;;7.20;;
50102;SDS011;35993;52.604;10.078;2023-04-08T02:58:57;16.65;;;8.07;;
50102;SDS011;35993;52.604;10.078;2023-04-08T03:01:22;16.13;;;7.90;;
50102;SDS011;35993;52.604;10.078;2023-04-08T03:03:48;16.58;;;7.90;;
50102;SDS011;35993;52.604;10.078;2023-04-08T03:06:14;15.35;;;7.50;;
50102;SDS011;35993;52.604;10.078;2023-04-08T03:08:40;16.33;;;7.50;;
50102;SDS011;35993;52.604;10.078;2023-04-08T03:11:05;15.73;;;8.35;;
50102;SDS011;35993;52.604;10.078;2023-04-08T03:13:31;14.73;;;7.60;;
50102;SDS011;35993;52.604;10.078;2023-04-08T03:15:56;19.02;;;8.25;;
50102;SDS011;35993;52.604;10.078;2023-04-08T03:18:22;20.25;;;8.52;;
50102;SDS011;35993;52.604;10.078;2023-04-08T03:20:48;15.52;;;8.20;;
50102;SDS011;35993;52.604;10.078;2023-04-08T03:23:14;14.50;;;7.97;;
50102;SDS011;35993;52.604;10.078;2023-04-08T03:25:40;18.05;;;8.10;;
50102;SDS011;35993;52.604;10.078;2023-04-08T03:28:06;17.23;;;8.07;;
50102;SDS011;35993;52.604;10.078;2023-04-08T03:30:31;18.17;;;8.20;;
50102;SDS011;35993;52.604;10.078;2023-04-08T03:32:57;15.65;;;7.65;;
50102;SDS011;35993;52.604;10.078;2023-04-08T03:35:22;16.95;;;7.25;;
50102;SDS011;35993;52.604;10.078;2023-04-08T03:37:48;16.35;;;7.85;;
50102;SDS011;35993;52.604;10.078;2023-04-08T03:40:13;19.73;;;8.38;;
50102;SDS011;35993;52.604;10.078;2023-04-08T03:42:39;14.30;;;7.75;;
50102;SDS011;35993;52.604;10.078;2023-04-08T03:45:05;14.25;;;7.78;;
50102;SDS011;35993;52.604;10.078;2023-04-08T03:47:31;15.45;;;7.90;;
50102;SDS011;35993;52.604;10.078;2023-04-08T03:49:56;15.73;;;7.68;;
50102;SDS011;35993;52.604;10.078;2023-04-08T03:52:22;15.25;;;7.93;;
50102;SDS011;35993;52.604;10.078;2023-04-08T03:54:49;14.30;;;7.82;;
50102;SDS011;35993;52.604;10.078;2023-04-08T03:57:14;16.52;;;8.63;;
50102;SDS011;35993;52.604;10.078;2023-04-08T03:59:40;15.32;;;8.07;;
50102;SDS011;35993;52.604;10.078;2023-04-08T04:02:05;17.00;;;7.68;;
50102;SDS011;35993;52.604;10.078;2023-04-08T04:04:31;14.32;;;8.20;;
50102;SDS011;35993;52.604;10.078;2023-04-08T04:06:57;16.05;;;7.82;;
50102;SDS011;35993;52.604;10.078;2023-04-08T04:09:23;15.73;;;8.18;;
50102;SDS011;35993;52.604;10.078;2023-04-08T04:11:49;16.17;;;8.38;;
50102;SDS011;35993;52.604;10.078;2023-04-08T04:14:14;18.27;;;8.68;;
50102;SDS011;35993;52.604;10.078;2023-04-08T04:16:40;15.02;;;7.68;;
50102;SDS011;35993;52.604;10.078;2023-04-08T04:19:05;18.02;;;8.00;;
50102;SDS011;35993;52.604;10.078;2023-04-08T04:21:31;16.08;;;7.97;;
50102;SDS011;35993;52.604;10.078;2023-04-08T04:23:56;16.17;;;7.72;;
50102;SDS011;35993;52.604;10.078;2023-04-08T04:26:22;12.75;;;7.25;;
50102;SDS011;35993;52.604;10.078;2023-04-08T04:28:47;14.30;;;7.88;;
50102;SDS011;35993;52.604;10.078;2023-04-08T04:31:19;16.98;;;8.07;;
50102;SDS011;35993;52.604;10.078;2023-04-08T04:33:46;15.50;;;7.78;;
50102;SDS011;35993;52.604;10.078;2023-04-08T04:36:13;14.63;;;7.72;;
50102;SDS011;35993;52.604;10.078;2023-04-08T04:38:39;16.25;;;7.32;;
50102;SDS011;35993;52.604;10.078;2023-04-08T04:41:04;15.65;;;7.45;;
50102;SDS011;35993;52.604;10.078;2023-04-08T04:43:30;14.25;;;7.90;;
50102;SDS011;35993;52.604;10.078;2023-04-08T04:45:55;13.00;;;7.20;;
50102;SDS011;35993;52.604;10.078;2023-04-08T04:48:22;14.07;;;8.43;;
50102;SDS011;35993;52.604;10.078;2023-04-08T04:50:54;13.70;;;7.38;;
50102;SDS011;35993;52.604;10.078;2023-04-08T04:53:20;12.48;;;7.93;;
50102;SDS011;35993;52.604;10.078;2023-04-08T04:55:46;14.90;;;8.10;;
50102;SDS011;35993;52.604;10.078;2023-04-08T04:58:11;15.57;;;7.68;;
50102;SDS011;35993;52.604;10.078;2023-04-08T05:00:37;14.90;;;8.20;;
50102;SDS011;35993;52.604;10.078;2023-04-08T05:03:02;12.07;;;7.40;;
50102;SDS011;35993;52.604;10.078;2023-04-08T05:05:28;14.23;;;7.88;;
50102;SDS011;35993;52.604;10.078;2023-04-08T05:07:53;14.85;;;8.07;;
50102;SDS011;35993;52.604;10.078;2023-04-08T05:10:19;14.88;;;7.25;;
50102;SDS011;35993;52.604;10.078;2023-04-08T05:12:45;13.95;;;7.78;;
50102;SDS011;35993;52.604;10.078;2023-04-08T05:15:10;14.73;;;8.05;;
50102;SDS011;35993;52.604;10.078;2023-04-08T05:17:36;14.98;;;7.65;;
50102;SDS011;35993;52.604;10.078;2023-04-08T05:20:01;14.95;;;8.07;;
50102;SDS011;35993;52.604;10.078;2023-04-08T05:22:27;14.13;;;8.02;;
50102;SDS011;35993;52.604;10.078;2023-04-08T05:24:53;14.20;;;8.02;;
50102;SDS011;35993;52.604;10.078;2023-04-08T05:27:18;15.48;;;8.15;;
50102;SDS011;35993;52.604;10.078;2023-04-08T05:29:45;17.00;;;8.40;;
50102;SDS011;35993;52.604;10.078;2023-04-08T05:32:11;16.15;;;8.32;;
50102;SDS011;35993;52.604;10.078;2023-04-08T05:34:37;15.38;;;8.02;;
50102;SDS011;35993;52.604;10.078;2023-04-08T05:37:02;14.30;;;8.13;;
50102;SDS011;35993;52.604;10.078;2023-04-08T05:39:28;15.20;;;8.35;;
50102;SDS011;35993;52.604;10.078;2023-04-08T05:41:54;19.15;;;9.43;;
50102;SDS011;35993;52.604;10.078;2023-04-08T05:44:19;15.35;;;8.88;;
50102;SDS011;35993;52.604;10.078;2023-04-08T05:46:45;18.42;;;9.40;;
50102;SDS011;35993;52.604;10.078;2023-04-08T05:49:11;16.77;;;8.80;;
50102;SDS011;35993;52.604;10.078;2023-04-08T05:51:37;14.50;;;8.18;;
50102;SDS011;35993;52.604;10.078;2023-04-08T05:54:03;16.77;;;8.80;;
50102;SDS011;35993;52.604;10.078;2023-04-08T05:56:29;15.82;;;8.52;;
50102;SDS011;35993;52.604;10.078;2023-04-08T05:58:56;16.48;;;8.63;;
50102;SDS011;35993;52.604;10.078;2023-04-08T06:01:22;15.88;;;8.77;;
50102;SDS011;35993;52.604;10.078;2023-04-08T06:03:48;19.52;;;10.25;;
50102;SDS011;35993;52.604;10.078;2023-04-08T06:06:13;20.65;;;9.80;;
50102;SDS011;35993;52.604;10.078;2023-04-08T06:08:39;18.25;;;9.23;;
50102;SDS011;35993;52.604;10.078;2023-04-08T06:11:05;16.27;;;9.38;;
50102;SDS011;35993;52.604;10.078;2023-04-08T06:13:31;19.13;;;9.63;;
50102;SDS011;35993;52.604;10.078;2023-04-08T06:15:56;17.33;;;9.50;;
50102;SDS011;35993;52.604;10.078;2023-04-08T06:18:22;21.38;;;9.60;;
50102;SDS011;35993;52.604;10.078;2023-04-08T06:20:47;20.60;;;9.95;;
50102;SDS011;35993;52.604;10.078;2023-04-08T06:23:13;21.95;;;10.48;;
50102;SDS011;35993;52.604;10.078;2023-04-08T06:25:39;19.50;;;9.48;;
50102;SDS011;35993;52.604;10.078;2023-04-08T06:28:06;19.45;;;10.02;;
50102;SDS011;35993;52.604;10.078;2023-04-08T06:30:31;18.88;;;9.82;;
50102;SDS011;35993;52.604;10.078;2023-04-08T06:32:57;20.52;;;9.57;;
50102;SDS011;35993;52.604;10.078;2023-04-08T06:35:22;20.38;;;9.57;;
50102;SDS011;35993;52.604;10.078;2023-04-08T06:37:48;22.95;;;10.60;;
50102;SDS011;35993;52.604;10.078;2023-04-08T06:40:13;20.40;;;9.88;;
50102;SDS011;35993;52.604;10.078;2023-04-08T06:42:39;20.35;;;10.25;;
50102;SDS011;35993;52.604;10.078;2023-04-08T06:45:33;21.35;;;9.18;;
50102;SDS011;35993;52.604;10.078;2023-04-08T06:47:59;19.58;;;9.73;;
50102;SDS011;35993;52.604;10.078;2023-04-08T06:50:24;19.50;;;9.20;;
50102;SDS011;35993;52.604;10.078;2023-04-08T06:52:50;18.80;;;9.20;;
50102;SDS011;35993;52.604;10.078;2023-04-08T06:55:16;19.90;;;9.75;;
50102;SDS011;35993;52.604;10.078;2023-04-08T06:57:41;17.73;;;8.73;;
50102;SDS011;35993;52.604;10.078;2023-04-08T07:00:07;21.13;;;10.32;;
50102;SDS011;35993;52.604;10.078;2023-04-08T07:02:33;20.27;;;10.02;;
50102;SDS011;35993;52.604;10.078;2023-04-08T07:04:58;19.75;;;9.93;;
50102;SDS011;35993;52.604;10.078;2023-04-08T07:07:24;16.02;;;9.43;;
50102;SDS011;35993;52.604;10.078;2023-04-08T07:09:50;22.17;;;9.98;;
50102;SDS011;35993;52.604;10.078;2023-04-08T07:12:15;18.77;;;9.65;;
50102;SDS011;35993;52.604;10.078;2023-04-08T07:14:41;17.17;;;9.80;;
50102;SDS011;35993;52.604;10.078;2023-04-08T07:17:07;16.98;;;9.65;;
50102;SDS011;35993;52.604;10.078;2023-04-08T07:19:33;18.75;;;9.20;;
50102;SDS011;35993;52.604;10.078;2023-04-08T07:21:58;18.42;;;9.10;;
50102;SDS011;35993;52.604;10.078;2023-04-08T07:24:24;16.33;;;9.30;;
50102;SDS011;35993;52.604;10.078;2023-04-08T07:26:49;20.60;;;9.55;;
50102;SDS011;35993;52.604;10.078;2023-04-08T07:29:15;18.40;;;8.80;;
50102;SDS011;35993;52.604;10.078;2023-04-08T07:31:44;20.05;;;9.40;;
50102;SDS011;35993;52.604;10.078;2023-04-08T07:34:09;19.92;;;10.15;;
50102;SDS011;35993;52.604;10.078;2023-04-08T07:36:35;16.67;;;8.93;;
50102;SDS011;35993;52.604;10.078;2023-04-08T07:39:01;17.50;;;9.15;;
50102;SDS011;35993;52.604;10.078;2023-04-08T07:41:27;17.52;;;9.30;;
50102;SDS011;35993;52.604;10.078;2023-04-08T07:43:52;18.35;;;9.55;;
50102;SDS011;35993;52.604;10.078;2023-04-08T07:46:18;19.77;;;9.75;;
50102;SDS011;35993;52.604;10.078;2023-04-08T07:48:45;16.85;;;9.45;;
50102;SDS011;35993;52.604;10.078;2023-04-08T07:51:10;16.10;;;9.18;;
50102;SDS011;35993;52.604;10.078;2023-04-08T07:53:36;17.77;;;9.65;;
50102;SDS011;35993;52.604;10.078;2023-04-08T07:56:02;14.80;;;8.60;;
50102;SDS011;35993;52.604;10.078;2023-04-08T07:58:35;16.60;;;8.73;;
50102;SDS011;35993;52.604;10.078;2023-04-08T08:01:01;16.70;;;8.90;;
50102;SDS011;35993;52.604;10.078;2023-04-08T08:03:26;15.95;;;8.88;;
50102;SDS011;35993;52.604;10.078;2023-04-08T08:05:52;14.57;;;8.40;;
50102;SDS011;35993;52.604;10.078;2023-04-08T08:08:17;18.23;;;9.48;;
50102;SDS011;35993;52.604;10.078;2023-04-08T08:10:43;19.30;;;9.15;;
50102;SDS011;35993;52.604;10.078;2023-04-08T08:13:08;18.15;;;8.68;;
50102;SDS011;35993;52.604;10.078;2023-04-08T08:15:34;16.75;;;9.80;;
50102;SDS011;35993;52.604;10.078;2023-04-08T08:18:00;16.02;;;8.77;;
50102;SDS011;35993;52.604;10.078;2023-04-08T08:20:25;17.35;;;8.90;;
50102;SDS011;35993;52.604;10.078;2023-04-08T08:22:51;15.80;;;8.00;;
50102;SDS011;35993;52.604;10.078;2023-04-08T08:25:16;19.65;;;9.70;;
50102;SDS011;35993;52.604;10.078;2023-04-08T08:27:42;18.52;;;9.60;;
50102;SDS011;35993;52.604;10.078;2023-04-08T08:30:09;15.82;;;8.35;;
50102;SDS011;35993;52.604;10.078;2023-04-08T08:32:35;15.60;;;8.60;;
50102;SDS011;35993;52.604;10.078;2023-04-08T08:35:00;15.90;;;9.15;;
50102;SDS011;35993;52.604;10.078;2023-04-08T08:37:26;16.38;;;8.70;;
50102;SDS011;35993;52.604;10.078;2023-04-08T08:39:51;14.38;;;8.18;;
50102;SDS011;35993;52.604;10.078;2023-04-08T08:42:24;16.35;;;8.88;;
50102;SDS011;35993;52.604;10.078;2023-04-08T08:44:50;15.00;;;8.93;;
50102;SDS011;35993;52.604;10.078;2023-04-08T08:47:16;17.88;;;8.38;;
50102;SDS011;35993;52.604;10.078;2023-04-08T08:49:42;13.45;;;7.65;;
50102;SDS011;35993;52.604;10.078;2023-04-08T08:52:09;14.90;;;7.45;;
50102;SDS011;35993;52.604;10.078;2023-04-08T08:54:35;14.65;;;7.97;;
50102;SDS011;35993;52.604;10.078;2023-04-08T08:57:02;13.80;;;7.70;;
50102;SDS011;35993;52.604;10.078;2023-04-08T08:59:27;11.68;;;7.43;;
50102;SDS011;35993;52.604;10.078;2023-04-08T09:01:53;15.57;;;8.10;;
50102;SDS011;35993;52.604;10.078;2023-04-08T09:04:20;16.10;;;9.02;;
50102;SDS011;35993;52.604;10.078;2023-04-08T09:06:47;15.23;;;8.40;;
50102;SDS011;35993;52.604;10.078;2023-04-08T09:09:17;14.27;;;7.90;;
50102;SDS011;35993;52.604;10.078;2023-04-08T09:11:43;16.60;;;8.63;;
50102;SDS011;35993;52.604;10.078;2023-04-08T09:14:23;14.30;;;8.38;;
50102;SDS011;35993;52.604;10.078;2023-04-08T09:16:50;15.98;;;8.57;;
50102;SDS011;35993;52.604;10.078;2023-04-08T09:19:16;14.85;;;8.77;;
50102;SDS011;35993;52.604;10.078;2023-04-08T09:21:42;16.92;;;8.98;;
50102;SDS011;35993;52.604;10.078;2023-04-08T09:24:08;14.98;;;8.45;;
50102;SDS011;35993;52.604;10.078;2023-04-08T09:26:50;15.43;;;9.55;;
50102;SDS011;35993;52.604;10.078;2023-04-08T09:29:16;16.10;;;9.32;;
50102;SDS011;35993;52.604;10.078;2023-04-08T09:31:41;18.80;;;9.27;;
50102;SDS011;35993;52.604;10.078;2023-04-08T09:34:14;17.77;;;9.88;;
50102;SDS011;35993;52.604;10.078;2023-04-08T09:36:49;17.40;;;9.45;;
50102;SDS011;35993;52.604;10.078;2023-04-08T09:39:15;14.23;;;8.75;;
50102;SDS011;35993;52.604;10.078;2023-04-08T09:41:41;17.67;;;9.32;;
50102;SDS011;35993;52.604;10.078;2023-04-08T09:44:08;18.83;;;8.95;;
50102;SDS011;35993;52.604;10.078;2023-04-08T09:46:39;16.83;;;9.23;;
50102;SDS011;35993;52.604;10.078;2023-04-08T09:49:28;18.42;;;8.77;;
50102;SDS011;35993;52.604;10.078;2023-04-08T09:52:12;17.48;;;8.68;;
50102;SDS011;35993;52.604;10.078;2023-04-08T10:00:15;14.00;;;8.60;;
50102;SDS011;35993;52.604;10.078;2023-04-08T10:05:31;15.15;;;7.82;;
50102;SDS011;35993;52.604;10.078;2023-04-08T10:08:00;15.80;;;8.70;;
50102;SDS011;35993;52.604;10.078;2023-04-08T10:10:26;15.13;;;8.35;;
50102;SDS011;35993;52.604;10.078;2023-04-08T10:12:52;14.95;;;8.45;;
50102;SDS011;35993;52.604;10.078;2023-04-08T10:17:54;15.27;;;8.60;;
50102;SDS011;35993;52.604;10.078;2023-04-08T10:25:27;15.85;;;8.25;;
50102;SDS011;35993;52.604;10.078;2023-04-08T10:28:01;18.13;;;8.20;;
50102;SDS011;35993;52.604;10.078;2023-04-08T10:30:45;14.73;;;8.98;;
50102;SDS011;35993;52.604;10.078;2023-04-08T10:33:12;19.15;;;9.05;;
50102;SDS011;35993;52.604;10.078;2023-04-08T10:35:41;14.85;;;8.52;;
50102;SDS011;35993;52.604;10.078;2023-04-08T10:38:16;15.13;;;8.43;;
50102;SDS011;35993;52.604;10.078;2023-04-08T10:40:43;16.92;;;8.32;;
50102;SDS011;35993;52.604;10.078;2023-04-08T10:43:09;14.85;;;8.25;;
50102;SDS011;35993;52.604;10.078;2023-04-08T10:45:38;15.80;;;8.85;;
50102;SDS011;35993;52.604;10.078;2023-04-08T10:48:15;15.80;;;8.75;;
50102;SDS011;35993;52.604;10.078;2023-04-08T10:50:51;15.50;;;8.90;;
50102;SDS011;35993;52.604;10.078;2023-04-08T10:53:24;13.93;;;8.38;;
50102;SDS011;35993;52.604;10.078;2023-04-08T10:58:31;20.38;;;10.85;;
50102;SDS011;35993;52.604;10.078;2023-04-08T11:01:02;16.85;;;9.55;;
50102;SDS011;35993;52.604;10.078;2023-04-08T11:03:30;20.17;;;10.23;;
50102;SDS011;35993;52.604;10.078;2023-04-08T11:05:58;17.40;;;9.23;;
50102;SDS011;35993;52.604;10.078;2023-04-08T11:08:31;18.23;;;9.60;;
50102;SDS011;35993;52.604;10.078;2023-04-08T11:11:00;17.73;;;8.82;;
50102;SDS011;35993;52.604;10.078;2023-04-08T11:13:26;18.52;;;9.13;;
50102;SDS011;35993;52.604;10.078;2023-04-08T11:15:53;16.75;;;8.82;;
50102;SDS011;35993;52.604;10.078;2023-04-08T11:18:22;18.88;;;9.00;;
50102;SDS011;35993;52.604;10.078;2023-04-08T11:20:49;16.88;;;8.98;;
50102;SDS011;35993;52.604;10.078;2023-04-08T11:23:15;15.65;;;9.07;;
50102;SDS011;35993;52.604;10.078;2023-04-08T11:25:41;16.35;;;8.63;;
50102;SDS011;35993;52.604;10.078;2023-04-08T11:28:09;18.80;;;9.70;;
50102;SDS011;35993;52.604;10.078;2023-04-08T11:30:35;20.48;;;10.05;;
50102;SDS011;35993;52.604;10.078;2023-04-08T11:33:02;20.80;;;9.25;;
50102;SDS011;35993;52.604;10.078;2023-04-08T11:35:28;20.38;;;9.80;;
50102;SDS011;35993;52.604;10.078;2023-04-08T11:37:55;20.27;;;10.85;;
50102;SDS011;35993;52.604;10.078;2023-04-08T11:40:21;21.60;;;11.00;;
50102;SDS011;35993;52.604;10.078;2023-04-08T11:42:48;18.17;;;9.63;;
50102;SDS011;35993;52.604;10.078;2023-04-08T11:45:14;18.38;;;9.75;;
50102;SDS011;35993;52.604;10.078;2023-04-08T11:47:42;23.08;;;9.68;;
50102;SDS011;35993;52.604;10.078;2023-04-08T11:50:08;19.17;;;9.70;;
50102;SDS011;35993;52.604;10.078;2023-04-08T11:55:09;18.58;;;9.95;;
50102;SDS011;35993;52.604;10.078;2023-04-08T11:57:37;19.08;;;9.98;;
50102;SDS011;35993;52.604;10.078;2023-04-08T12:00:04;21.40;;;10.57;;
50102;SDS011;35993;52.604;10.078;2023-04-08T12:02:36;22.58;;;10.50;;
50102;SDS011;35993;52.604;10.078;2023-04-08T12:05:01;19.50;;;10.13;;
50102;SDS011;35993;52.604;10.078;2023-04-08T12:07:27;20.73;;;9.65;;
50102;SDS011;35993;52.604;10.078;2023-04-08T12:09:53;19.05;;;9.38;;
50102;SDS011;35993;52.604;10.078;2023-04-08T12:12:19;19.75;;;9.43;;
50102;SDS011;35993;52.604;10.078;2023-04-08T12:14:44;20.67;;;10.27;;
50102;SDS011;35993;52.604;10.078;2023-04-08T12:17:10;21.48;;;10.93;;
50102;SDS011;35993;52.604;10.078;2023-04-08T12:19:36;19.25;;;10.20;;
50102;SDS011;35993;52.604;10.078;2023-04-08T12:22:02;17.23;;;10.00;;
50102;SDS011;35993;52.604;10.078;2023-04-08T12:24:27;21.25;;;10.90;;
50102;SDS011;35993;52.604;10.078;2023-04-08T12:26:53;21.55;;;10.10;;
50102;SDS011;35993;52.604;10.078;2023-04-08T12:29:18;22.65;;;11.52;;
50102;SDS011;35993;52.604;10.078;2023-04-08T12:31:44;25.23;;;11.25;;
50102;SDS011;35993;52.604;10.078;2023-04-08T12:34:10;21.98;;;11.43;;
50102;SDS011;35993;52.604;10.078;2023-04-08T12:36:35;23.13;;;10.88;;
50102;SDS011;35993;52.604;10.078;2023-04-08T12:39:02;20.38;;;10.70;;
50102;SDS011;35993;52.604;10.078;2023-04-08T12:41:27;19.75;;;10.70;;
50102;SDS011;35993;52.604;10.078;2023-04-08T12:43:53;21.98;;;10.98;;
50102;SDS011;35993;52.604;10.078;2023-04-08T12:46:18;23.42;;;10.98;;
50102;SDS011;35993;52.604;10.078;2023-04-08T12:48:43;20.20;;;10.40;;
50102;SDS011;35993;52.604;10.078;2023-04-08T12:51:10;20.00;;;10.40;;
50102;SDS011;35993;52.604;10.078;2023-04-08T12:53:36;23.65;;;10.63;;
50102;SDS011;35993;52.604;10.078;2023-04-08T12:56:01;19.25;;;10.68;;
50102;SDS011;35993;52.604;10.078;2023-04-08T12:58:27;20.00;;;10.63;;
50102;SDS011;35993;52.604;10.078;2023-04-08T13:00:52;22.40;;;10.65;;
50102;SDS011;35993;52.604;10.078;2023-04-08T13:03:18;22.25;;;10.40;;
50102;SDS011;35993;52.604;10.078;2023-04-08T13:05:43;21.50;;;10.73;;
50102;SDS011;35993;52.604;10.078;2023-04-08T13:08:09;24.13;;;11.40;;
50102;SDS011;35993;52.604;10.078;2023-04-08T13:10:36;24.08;;;10.45;;
50102;SDS011;35993;52.604;10.078;2023-04-08T13:13:02;23.67;;;10.88;;
50102;SDS011;35993;52.604;10.078;2023-04-08T13:15:27;24.20;;;10.32;;
50102;SDS011;35993;52.604;10.078;2023-04-08T13:17:53;24.58;;;11.50;;
50102;SDS011;35993;52.604;10.078;2023-04-08T13:20:18;22.38;;;10.25;;
50102;SDS011;35993;52.604;10.078;2023-04-08T13:22:47;22.17;;;10.52;;
50102;SDS011;35993;52.604;10.078;2023-04-08T13:25:13;23.17;;;10.77;;
50102;SDS011;35993;52.604;10.078;2023-04-08T13:27:38;21.70;;;10.80;;
50102;SDS011;35993;52.604;10.078;2023-04-08T13:30:04;23.08;;;12.23;;
50102;SDS011;35993;52.604;10.078;2023-04-08T13:32:30;24.88;;;11.50;;
50102;SDS011;35993;52.604;10.078;2023-04-08T13:34:56;22.70;;;10.70;;
50102;SDS011;35993;52.604;10.078;2023-04-08T13:37:21;23.50;;;11.30;;
50102;SDS011;35993;52.604;10.078;2023-04-08T13:39:47;23.58;;;11.18;;
50102;SDS011;35993;52.604;10.078;2023-04-08T13:42:12;20.35;;;10.80;;
50102;SDS011;35993;52.604;10.078;2023-04-08T13:44:38;24.83;;;11.90;;
50102;SDS011;35993;52.604;10.078;2023-04-08T13:47:03;21.58;;;11.20;;
50102;SDS011;35993;52.604;10.078;2023-04-08T13:49:29;19.83;;;10.75;;
50102;SDS011;35993;52.604;10.078;2023-04-08T13:51:54;24.27;;;10.63;;
50102;SDS011;35993;52.604;10.078;2023-04-08T13:54:20;26.08;;;11.85;;
50102;SDS011;35993;52.604;10.078;2023-04-08T13:56:45;21.17;;;11.25;;
50102;SDS011;35993;52.604;10.078;2023-04-08T13:59:11;20.80;;;10.70;;
50102;SDS011;35993;52.604;10.078;2023-04-08T14:01:36;22.35;;;10.63;;
50102;SDS011;35993;52.604;10.078;2023-04-08T14:04:02;30.92;;;11.20;;
50102;SDS011;35993;52.604;10.078;2023-04-08T14:06:27;21.08;;;10.25;;
50102;SDS011;35993;52.604;10.078;2023-04-08T14:08:53;21.63;;;10.20;;
50102;SDS011;35993;52.604;10.078;2023-04-08T14:11:19;19.17;;;9.85;;
50102;SDS011;35993;52.604;10.078;2023-04-08T14:13:45;23.27;;;10.25;;
50102;SDS011;35993;52.604;10.078;2023-04-08T14:16:10;20.30;;;10.43;;
50102;SDS011;35993;52.604;10.078;2023-04-08T14:18:36;20.52;;;9.82;;
50102;SDS011;35993;52.604;10.078;2023-04-08T14:21:01;22.27;;;11.32;;
50102;SDS011;35993;52.604;10.078;2023-04-08T14:23:28;19.42;;;9.88;;
50102;SDS011;35993;52.604;10.078;2023-04-08T14:25:53;20.48;;;10.50;;
50102;SDS011;35993;52.604;10.078;2023-04-08T14:28:19;23.70;;;10.57;;
50102;SDS011;35993;52.604;10.078;2023-04-08T14:30:45;22.33;;;10.23;;
50102;SDS011;35993;52.604;10.078;2023-04-08T14:33:11;20.27;;;10.85;;
50102;SDS011;35993;52.604;10.078;2023-04-08T14:35:37;19.92;;;9.38;;
50102;SDS011;35993;52.604;10.078;2023-04-08T14:38:02;20.15;;;10.00;;
50102;SDS011;35993;52.604;10.078;2023-04-08T14:40:28;21.83;;;9.77;;
50102;SDS011;35993;52.604;10.078;2023-04-08T14:42:53;18.40;;;9.82;;
50102;SDS011;35993;52.604;10.078;2023-04-08T14:45:19;20.30;;;10.43;;